createdAt,value
2022-11-02T00:00:21.627Z,56.10
2022-11-02T00:02:49.480Z,56.00
2022-11-02T00:05:23.685Z,55.90
2022-11-02T00:07:51.836Z,56.00
2022-11-02T00:10:19.517Z,55.90
2022-11-02T00:12:47.314Z,56.00
2022-11-02T00:15:15.046Z,55.90
2022-11-02T00:17:42.895Z,55.90
2022-11-02T00:20:10.720Z,55.90
2022-11-02T00:22:38.413Z,55.90
2022-11-02T00:25:06.882Z,55.90
2022-11-02T00:27:34.579Z,55.90
2022-11-02T00:30:02.282Z,55.80
2022-11-02T00:32:30.148Z,55.80
2022-11-02T00:34:57.910Z,55.90
2022-11-02T00:37:25.912Z,55.90
2022-11-02T00:39:53.771Z,55.80
2022-11-02T00:42:21.624Z,55.90
2022-11-02T00:44:49.311Z,55.90
2022-11-02T00:47:17.097Z,56.40
2022-11-02T00:49:44.750Z,55.90
2022-11-02T00:52:12.450Z,55.80
2022-11-02T00:54:40.177Z,55.80
2022-11-02T00:57:07.823Z,55.70
2022-11-02T00:59:35.546Z,55.70
2022-11-02T01:02:03.375Z,55.90
2022-11-02T01:04:31.131Z,55.70
2022-11-02T01:06:58.898Z,55.80
2022-11-02T01:09:26.639Z,55.80
2022-11-02T01:11:54.600Z,55.70
2022-11-02T01:14:22.417Z,55.70
2022-11-02T01:16:50.148Z,55.70
2022-11-02T01:19:18.003Z,55.70
2022-11-02T01:21:45.744Z,55.60
2022-11-02T01:24:13.435Z,55.80
2022-11-02T01:26:41.225Z,55.70
2022-11-02T01:29:08.929Z,55.70
2022-11-02T01:31:36.738Z,55.70
2022-11-02T01:34:04.950Z,55.80
2022-11-02T01:36:32.635Z,55.80
2022-11-02T01:39:00.308Z,55.70
2022-11-02T01:41:27.957Z,55.70
2022-11-02T01:43:55.711Z,55.80
2022-11-02T01:46:23.661Z,55.70
2022-11-02T01:48:51.346Z,55.80
2022-11-02T01:51:19.268Z,55.80
2022-11-02T01:53:47.232Z,55.80
2022-11-02T01:56:14.995Z,55.80
2022-11-02T01:58:42.942Z,55.80
2022-11-02T02:01:10.660Z,55.70
2022-11-02T02:03:38.357Z,55.70
2022-11-02T02:06:06.570Z,55.70
2022-11-02T02:08:34.277Z,55.80
2022-11-02T02:11:02.010Z,55.70
2022-11-02T02:13:29.746Z,55.70
2022-11-02T02:15:57.490Z,55.70
2022-11-02T02:18:25.151Z,55.80
2022-11-02T02:20:52.838Z,55.80
2022-11-02T02:23:20.538Z,55.80
2022-11-02T02:25:48.257Z,55.80
2022-11-02T02:28:16.073Z,55.80
2022-11-02T02:30:43.816Z,55.80
2022-11-02T02:33:11.678Z,55.80
2022-11-02T02:35:39.448Z,55.80
2022-11-02T02:38:07.413Z,55.70
2022-11-02T02:40:35.457Z,55.80
2022-11-02T02:43:03.182Z,55.80
2022-11-02T02:45:32.176Z,55.80
2022-11-02T02:47:59.925Z,55.80
2022-11-02T02:50:27.751Z,55.80
2022-11-02T02:52:55.878Z,55.60
2022-11-02T02:55:23.765Z,55.70
2022-11-02T02:57:51.594Z,55.70
2022-11-02T03:00:19.365Z,55.60
2022-11-02T03:03:01.100Z,55.60
2022-11-02T03:05:29.241Z,55.70
2022-11-02T03:07:56.974Z,55.70
2022-11-02T03:10:24.671Z,55.60
2022-11-02T03:12:52.566Z,55.70
2022-11-02T03:15:20.252Z,55.70
2022-11-02T03:17:48.288Z,55.60
2022-11-02T03:20:16.020Z,55.60
2022-11-02T03:22:43.874Z,55.60
2022-11-02T03:25:11.645Z,55.50
2022-11-02T03:27:39.679Z,55.60
2022-11-02T03:30:07.938Z,55.60
2022-11-02T03:32:35.572Z,55.40
2022-11-02T03:35:03.323Z,55.60
2022-11-02T03:37:31.333Z,55.60
2022-11-02T03:39:59.069Z,55.50
2022-11-02T03:42:26.903Z,55.50
2022-11-02T03:44:54.598Z,55.60
2022-11-02T03:47:22.372Z,55.60
2022-11-02T03:49:50.564Z,55.60
2022-11-02T03:52:18.333Z,55.60
2022-11-02T03:54:46.091Z,55.70
2022-11-02T03:57:13.817Z,55.60
2022-11-02T03:59:41.591Z,55.60
2022-11-02T04:02:09.732Z,55.60
2022-11-02T04:04:37.511Z,56.40
2022-11-02T04:07:05.400Z,55.60
2022-11-02T04:09:33.043Z,55.70
2022-11-02T04:12:14.571Z,55.70
2022-11-02T04:14:42.249Z,55.60
2022-11-02T04:17:27.596Z,55.60
2022-11-02T04:19:55.350Z,55.70
2022-11-02T04:22:40.723Z,55.60
2022-11-02T04:25:18.616Z,55.70
2022-11-02T04:27:47.202Z,55.70
2022-11-02T04:30:15.008Z,55.60
2022-11-02T04:33:00.476Z,55.60
2022-11-02T04:35:28.190Z,55.70
2022-11-02T04:38:13.465Z,55.70
2022-11-02T04:40:41.175Z,55.80
2022-11-02T04:43:08.902Z,55.80
2022-11-02T04:45:39.028Z,56.00
2022-11-02T04:48:07.059Z,56.00
2022-11-02T04:50:35.221Z,56.20
2022-11-02T04:53:02.961Z,56.20
2022-11-02T04:55:30.756Z,56.30
2022-11-02T04:57:58.571Z,56.30
2022-11-02T05:00:26.242Z,56.30
2022-11-02T05:02:54.004Z,56.40
2022-11-02T05:05:22.209Z,56.40
2022-11-02T05:07:49.970Z,56.40
2022-11-02T05:10:17.726Z,56.30
2022-11-02T05:12:45.577Z,56.50
2022-11-02T05:15:13.236Z,56.50
2022-11-02T05:17:41.127Z,56.60
2022-11-02T05:20:08.851Z,56.70
2022-11-02T05:22:36.565Z,56.70
2022-11-02T05:25:04.408Z,56.80
2022-11-02T05:27:32.042Z,56.90
2022-11-02T05:30:00.060Z,56.80
2022-11-02T05:32:27.777Z,56.90
2022-11-02T05:34:55.477Z,56.90
2022-11-02T05:37:23.244Z,57.10
2022-11-02T05:39:50.921Z,57.00
2022-11-02T05:42:18.651Z,57.10
2022-11-02T05:44:46.357Z,57.10
2022-11-02T05:47:14.069Z,57.10
2022-11-02T05:49:41.813Z,57.10
2022-11-02T05:52:09.586Z,57.10
2022-11-02T05:54:37.318Z,57.30
2022-11-02T05:57:04.980Z,57.20
2022-11-02T05:59:32.830Z,57.20
2022-11-02T06:02:00.700Z,57.20
2022-11-02T06:04:28.477Z,57.10
2022-11-02T06:06:56.300Z,57.10
2022-11-02T06:09:23.998Z,57.10
2022-11-02T06:11:51.726Z,57.10
2022-11-02T06:14:19.399Z,57.10
2022-11-02T06:16:47.128Z,57.00
2022-11-02T06:21:48.632Z,57.00
2022-11-02T06:24:16.585Z,57.10
2022-11-02T06:26:44.324Z,56.90
2022-11-02T06:29:12.188Z,57.10
2022-11-02T06:31:40.005Z,57.10
2022-11-02T06:34:07.766Z,57.10
2022-11-02T06:36:35.501Z,57.20
2022-11-02T06:39:03.162Z,57.20
2022-11-02T06:41:31.027Z,57.20
2022-11-02T06:43:58.726Z,57.10
2022-11-02T06:46:26.421Z,57.10
2022-11-02T06:48:54.297Z,57.10
2022-11-02T06:51:21.930Z,57.10
2022-11-02T06:53:49.663Z,57.00
2022-11-02T06:56:17.393Z,57.10
2022-11-02T06:58:45.268Z,57.00
2022-11-02T07:01:13.891Z,57.10
2022-11-02T07:03:41.930Z,57.20
2022-11-02T07:06:13.937Z,57.10
2022-11-02T07:08:42.651Z,57.10
2022-11-02T07:11:10.384Z,57.00
2022-11-02T07:13:38.096Z,57.00
2022-11-02T07:16:05.787Z,57.00
2022-11-02T07:18:33.526Z,56.90
2022-11-02T07:21:01.687Z,56.80
2022-11-02T07:23:29.389Z,56.80
2022-11-02T07:25:57.249Z,57.50
2022-11-02T07:28:24.918Z,56.90
2022-11-02T07:30:52.799Z,56.80
2022-11-02T07:33:20.593Z,56.80
2022-11-02T07:35:48.614Z,56.90
2022-11-02T07:38:16.310Z,56.90
2022-11-02T07:40:44.337Z,57.10
2022-11-02T07:43:12.031Z,57.30
2022-11-02T07:45:39.713Z,57.30
2022-11-02T07:48:07.467Z,57.20
2022-11-02T07:50:35.301Z,57.10
2022-11-02T07:53:03.418Z,57.00
2022-11-02T07:55:31.318Z,56.90
2022-11-02T07:57:59.060Z,57.00
2022-11-02T08:00:26.860Z,57.00
2022-11-02T08:02:54.729Z,57.00
2022-11-02T08:05:22.525Z,57.00
2022-11-02T08:07:50.212Z,57.10
2022-11-02T08:10:17.925Z,57.10
2022-11-02T08:12:47.494Z,57.00
2022-11-02T08:15:15.286Z,57.00
2022-11-02T08:17:42.969Z,57.00
2022-11-02T08:20:10.725Z,57.00
2022-11-02T08:22:38.436Z,57.00
2022-11-02T08:25:06.169Z,57.00
2022-11-02T08:27:33.858Z,57.00
2022-11-02T08:30:01.906Z,57.00
2022-11-02T08:32:29.600Z,57.00
2022-11-02T08:34:57.345Z,57.10
2022-11-02T08:37:25.033Z,57.00
2022-11-02T08:39:52.702Z,57.10
2022-11-02T08:42:20.455Z,57.10
2022-11-02T08:44:48.301Z,57.10
2022-11-02T08:47:17.854Z,57.10
2022-11-02T08:49:47.162Z,57.10
2022-11-02T08:52:14.853Z,57.00
2022-11-02T08:54:42.720Z,57.10
2022-11-02T08:57:10.592Z,57.10
2022-11-02T08:59:38.454Z,57.00
2022-11-02T09:02:06.395Z,57.10
2022-11-02T09:04:34.215Z,57.30
2022-11-02T09:07:01.961Z,57.50
2022-11-02T09:09:29.693Z,57.60
2022-11-02T09:11:57.448Z,57.60
2022-11-02T09:14:25.584Z,57.70
2022-11-02T09:16:53.258Z,57.60
2022-11-02T09:19:20.927Z,57.60
2022-11-02T09:21:49.852Z,57.60
2022-11-02T09:24:17.564Z,57.60
2022-11-02T09:26:45.248Z,57.60
2022-11-02T09:29:12.958Z,57.60
2022-11-02T09:31:40.703Z,57.60
2022-11-02T09:34:08.504Z,57.60
2022-11-02T09:36:36.194Z,57.60
2022-11-02T09:39:04.043Z,57.40
2022-11-02T09:41:31.729Z,57.40
2022-11-02T09:43:59.431Z,57.50
2022-11-02T09:46:27.144Z,57.30
2022-11-02T09:48:54.908Z,57.30
2022-11-02T09:51:22.730Z,57.30
2022-11-02T09:53:50.378Z,57.30
2022-11-02T09:56:19.793Z,57.30
2022-11-02T09:58:47.510Z,57.30
2022-11-02T10:01:15.649Z,57.30
2022-11-02T10:03:43.395Z,57.30
2022-11-02T10:06:11.154Z,57.30
2022-11-02T10:08:38.968Z,57.30
2022-11-02T10:11:08.314Z,57.40
2022-11-02T10:13:36.142Z,57.30
2022-11-02T10:16:03.965Z,57.30
2022-11-02T10:18:31.670Z,57.30
2022-11-02T10:20:59.521Z,57.40
2022-11-02T10:23:27.401Z,57.30
2022-11-02T10:25:55.465Z,57.30
2022-11-02T10:28:23.259Z,57.40
2022-11-02T10:30:51.034Z,57.50
2022-11-02T10:33:18.812Z,57.60
2022-11-02T10:36:12.065Z,57.60
2022-11-02T10:38:34.221Z,57.50
2022-11-02T10:41:02.033Z,57.60
2022-11-02T10:43:29.777Z,57.50
2022-11-02T10:45:57.859Z,57.50
2022-11-02T10:48:25.513Z,57.40
2022-11-02T10:50:53.260Z,57.50
2022-11-02T10:53:40.055Z,57.40
2022-11-02T10:56:08.661Z,57.40
2022-11-02T10:58:36.315Z,57.40
2022-11-02T11:01:04.138Z,57.40
2022-11-02T11:03:31.940Z,57.40
2022-11-02T11:06:00.441Z,57.40
2022-11-02T11:08:28.286Z,57.40
2022-11-02T11:10:56.089Z,57.40
2022-11-02T11:16:17.743Z,57.30
2022-11-02T11:21:35.155Z,57.40
2022-11-02T11:24:02.881Z,57.30
2022-11-02T11:26:30.685Z,57.40
2022-11-02T11:28:58.392Z,57.30
2022-11-02T11:31:26.057Z,57.40
2022-11-02T11:33:53.891Z,57.30
2022-11-02T11:36:21.723Z,58.00
2022-11-02T11:38:49.529Z,57.40
2022-11-02T11:41:17.198Z,57.30
2022-11-02T11:43:44.862Z,57.30
2022-11-02T11:46:12.690Z,57.30
2022-11-02T11:48:40.370Z,57.40
2022-11-02T11:51:08.029Z,57.30
2022-11-02T11:53:38.758Z,57.30
2022-11-02T11:56:06.479Z,57.30
2022-11-02T11:58:34.479Z,57.40
2022-11-02T12:01:07.401Z,57.30
2022-11-02T12:03:38.099Z,57.90
2022-11-02T12:06:05.934Z,57.30
2022-11-02T12:08:33.640Z,57.30
2022-11-02T12:11:01.499Z,57.30
2022-11-02T12:13:29.250Z,57.20
2022-11-02T12:15:57.691Z,57.20
2022-11-02T12:18:25.509Z,57.20
2022-11-02T12:20:53.205Z,57.10
2022-11-02T12:23:20.909Z,57.20
2022-11-02T12:25:48.576Z,57.20
2022-11-02T12:28:16.516Z,57.10
2022-11-02T12:30:44.272Z,57.10
2022-11-02T12:33:11.924Z,57.30
2022-11-02T12:35:39.727Z,57.40
2022-11-02T12:38:07.656Z,57.40
2022-11-02T12:40:35.648Z,57.40
2022-11-02T12:43:05.582Z,57.30
2022-11-02T12:45:37.211Z,57.30
2022-11-02T12:48:05.806Z,57.30
2022-11-02T12:50:33.677Z,57.30
2022-11-02T12:53:01.400Z,57.20
2022-11-02T12:55:31.958Z,57.20
2022-11-02T12:58:02.944Z,57.20
2022-11-02T13:00:33.429Z,57.20
2022-11-02T13:03:01.457Z,57.30
2022-11-02T13:05:29.236Z,57.20
2022-11-02T13:07:57.016Z,57.20
2022-11-02T13:10:24.728Z,57.30
2022-11-02T13:12:52.449Z,57.30
2022-11-02T13:15:20.547Z,57.30
2022-11-02T13:17:48.367Z,57.30
2022-11-02T13:20:16.051Z,57.10
2022-11-02T13:22:43.700Z,57.30
2022-11-02T13:25:11.446Z,57.10
2022-11-02T13:27:40.477Z,57.10
2022-11-02T13:30:08.201Z,57.10
2022-11-02T13:32:36.221Z,57.10
2022-11-02T13:35:03.992Z,57.10
2022-11-02T13:37:31.742Z,57.10
2022-11-02T13:39:59.415Z,57.20
2022-11-02T13:42:27.134Z,57.40
2022-11-02T13:44:55.084Z,57.40
2022-11-02T13:47:22.842Z,57.40
2022-11-02T13:49:50.560Z,57.40
2022-11-02T13:52:18.243Z,57.50
2022-11-02T13:54:46.122Z,57.40
2022-11-02T13:57:13.897Z,57.30
2022-11-02T13:59:43.410Z,57.40
2022-11-02T14:02:11.456Z,57.30
2022-11-02T14:04:39.285Z,57.40
2022-11-02T14:07:06.935Z,57.30
2022-11-02T14:09:34.624Z,57.30
2022-11-02T14:12:02.346Z,57.30
2022-11-02T14:14:30.058Z,57.30
2022-11-02T14:16:58.627Z,57.30
2022-11-02T14:19:26.952Z,57.30
2022-11-02T14:21:54.714Z,57.30
2022-11-02T14:24:22.615Z,57.30
2022-11-02T14:26:50.364Z,57.30
2022-11-02T14:29:18.086Z,57.30
2022-11-02T14:31:45.917Z,57.20
2022-11-02T14:34:13.586Z,57.30
2022-11-02T14:36:41.370Z,57.10
2022-11-02T14:39:09.302Z,57.20
2022-11-02T14:41:37.130Z,57.20
2022-11-02T14:44:04.833Z,57.20
2022-11-02T14:46:32.520Z,57.20
2022-11-02T14:49:00.243Z,57.10
2022-11-02T14:51:27.933Z,57.10
2022-11-02T14:53:55.747Z,57.10
2022-11-02T14:56:23.434Z,57.10
2022-11-02T14:58:51.093Z,57.50
2022-11-02T15:01:18.777Z,57.20
2022-11-02T15:03:48.279Z,57.10
2022-11-02T15:06:17.563Z,57.10
2022-11-02T15:08:45.321Z,57.00
2022-11-02T15:11:13.014Z,57.10
2022-11-02T15:13:40.741Z,57.00
2022-11-02T15:16:08.485Z,56.80
2022-11-02T15:18:37.093Z,56.90
2022-11-02T15:21:04.788Z,56.70
2022-11-02T15:23:32.704Z,56.70
2022-11-02T15:26:01.204Z,56.70
2022-11-02T15:28:29.516Z,56.70
2022-11-02T15:30:57.244Z,56.80
2022-11-02T15:33:24.976Z,56.80
2022-11-02T15:35:52.672Z,56.80
2022-11-02T15:38:25.798Z,56.80
2022-11-02T15:41:04.447Z,56.80
2022-11-02T15:43:33.575Z,56.70
2022-11-02T15:46:06.488Z,56.70
2022-11-02T15:48:36.838Z,56.70
2022-11-02T15:51:04.617Z,56.70
2022-11-02T15:53:34.472Z,56.60
2022-11-02T15:56:02.203Z,56.50
2022-11-02T15:58:29.961Z,56.50
2022-11-02T16:00:57.710Z,56.30
2022-11-02T16:03:25.445Z,56.30
2022-11-02T16:05:53.159Z,56.30
2022-11-02T16:08:21.031Z,56.30
2022-11-02T16:10:48.853Z,56.30
2022-11-02T16:13:17.936Z,56.30
2022-11-02T16:15:45.731Z,56.30
2022-11-02T16:18:13.469Z,56.20
2022-11-02T16:20:41.400Z,56.10
2022-11-02T16:23:09.065Z,56.20
2022-11-02T16:25:39.820Z,56.20
2022-11-02T16:28:08.504Z,56.10
2022-11-02T16:30:36.231Z,56.10
2022-11-02T16:33:04.238Z,56.00
2022-11-02T16:35:31.914Z,55.90
2022-11-02T16:37:59.604Z,55.90
2022-11-02T16:40:27.543Z,55.90
2022-11-02T16:42:55.258Z,56.10
2022-11-02T16:45:23.005Z,56.10
2022-11-02T16:47:50.695Z,56.00
2022-11-02T16:50:18.453Z,56.00
2022-11-02T16:52:46.135Z,55.90
2022-11-02T16:55:13.816Z,55.90
2022-11-02T16:57:41.567Z,55.90
2022-11-02T17:00:09.768Z,55.80
2022-11-02T17:02:37.678Z,55.80
2022-11-02T17:05:06.807Z,55.80
2022-11-02T17:07:34.956Z,55.80
2022-11-02T17:10:02.696Z,55.90
2022-11-02T17:12:30.513Z,55.90
2022-11-02T17:14:58.464Z,55.90
2022-11-02T17:17:26.181Z,55.90
2022-11-02T17:19:54.033Z,55.90
2022-11-02T17:22:21.736Z,55.80
2022-11-02T17:24:49.424Z,55.80
2022-11-02T17:27:17.119Z,55.80
2022-11-02T17:29:44.845Z,55.90
2022-11-02T17:32:12.530Z,56.00
2022-11-02T17:34:40.768Z,55.90
2022-11-02T17:37:08.577Z,55.90
2022-11-02T17:39:37.929Z,55.90
2022-11-02T17:42:23.309Z,55.80
2022-11-02T17:44:51.183Z,55.80
2022-11-02T17:47:18.985Z,55.90
2022-11-02T17:49:46.734Z,55.80
2022-11-02T17:52:14.574Z,55.80
2022-11-02T17:54:42.747Z,55.70
2022-11-02T17:57:10.471Z,55.70
2022-11-02T17:59:38.213Z,55.70
2022-11-02T18:02:06.011Z,55.70
2022-11-02T18:04:33.965Z,55.60
2022-11-02T18:07:02.113Z,55.60
2022-11-02T18:09:30.153Z,55.60
2022-11-02T18:11:57.873Z,55.40
2022-11-02T18:14:25.614Z,55.40
2022-11-02T18:16:53.422Z,55.50
2022-11-02T18:19:21.202Z,55.50
2022-11-02T18:21:48.947Z,55.60
2022-11-02T18:24:16.710Z,55.70
2022-11-02T18:26:47.010Z,55.70
2022-11-02T18:29:14.943Z,55.60
2022-11-02T18:31:42.620Z,55.60
2022-11-02T18:34:10.742Z,55.60
2022-11-02T18:36:38.800Z,55.60
2022-11-02T18:39:06.495Z,55.60
2022-11-02T18:41:35.097Z,55.50
2022-11-02T18:44:08.922Z,55.50
2022-11-02T18:46:39.893Z,55.40
2022-11-02T18:49:07.882Z,55.40
2022-11-02T18:51:35.553Z,55.50
2022-11-02T18:54:03.441Z,55.50
2022-11-02T18:56:31.175Z,55.50
2022-11-02T18:58:59.101Z,55.60
2022-11-02T19:01:27.096Z,55.60
2022-11-02T19:03:54.891Z,55.60
2022-11-02T19:06:40.108Z,55.70
2022-11-02T19:09:19.929Z,55.70
2022-11-02T19:11:47.702Z,55.70
2022-11-02T19:14:15.806Z,55.50
2022-11-02T19:16:43.520Z,55.50
2022-11-02T19:19:11.332Z,55.50
2022-11-02T19:21:39.013Z,55.50
2022-11-02T19:24:06.704Z,55.50
2022-11-02T19:26:34.618Z,55.50
2022-11-02T19:29:05.982Z,55.50
2022-11-02T19:34:26.279Z,55.40
2022-11-02T19:36:53.985Z,55.30
2022-11-02T19:39:21.662Z,55.30
2022-11-02T19:41:53.607Z,55.30
2022-11-02T19:44:21.482Z,55.10
2022-11-02T19:46:49.132Z,55.30
2022-11-02T19:49:17.275Z,55.20
2022-11-02T19:51:45.020Z,55.20
2022-11-02T19:54:12.810Z,55.20
2022-11-02T19:56:40.745Z,55.20
2022-11-02T19:59:08.600Z,55.20
2022-11-02T20:01:36.711Z,55.20
2022-11-02T20:04:04.495Z,55.10
2022-11-02T20:06:32.626Z,55.10
2022-11-02T20:09:01.697Z,55.10
2022-11-02T20:11:29.713Z,55.10
2022-11-02T20:13:57.455Z,55.10
2022-11-02T20:16:27.167Z,55.10
2022-11-02T20:18:59.818Z,55.10
2022-11-02T20:21:32.391Z,55.10
2022-11-02T20:24:03.224Z,55.10
2022-11-02T20:26:31.373Z,55.20
2022-11-02T20:28:59.418Z,55.20
2022-11-02T20:31:30.459Z,55.20
2022-11-02T20:33:58.298Z,55.20
2022-11-02T20:36:27.089Z,55.20
2022-11-02T20:38:56.332Z,55.20
2022-11-02T20:41:24.289Z,55.20
2022-11-02T20:43:52.024Z,55.30
2022-11-02T20:49:20.502Z,55.40
2022-11-02T20:51:50.312Z,55.50
2022-11-02T20:54:19.991Z,55.60
2022-11-02T20:56:47.896Z,55.50
2022-11-02T20:59:15.706Z,55.50
2022-11-02T21:01:43.658Z,55.40
2022-11-02T21:04:16.886Z,55.40
2022-11-02T21:06:47.849Z,55.40
2022-11-02T21:09:15.664Z,55.40
2022-11-02T21:12:01.186Z,55.30
2022-11-02T21:14:29.297Z,55.40
2022-11-02T21:16:56.968Z,55.40
2022-11-02T21:19:24.833Z,55.40
2022-11-02T21:21:58.142Z,55.40
2022-11-02T21:24:27.831Z,55.40
2022-11-02T21:26:55.528Z,55.30
2022-11-02T21:29:28.313Z,55.20
2022-11-02T21:31:56.011Z,55.10
2022-11-02T21:34:23.884Z,55.10
2022-11-02T21:36:51.629Z,55.20
2022-11-02T21:39:19.353Z,55.20
2022-11-02T21:41:47.278Z,55.10
2022-11-02T21:44:15.293Z,54.90
2022-11-02T21:46:43.006Z,54.90
2022-11-02T21:49:10.791Z,55.00
2022-11-02T21:51:38.662Z,54.90
2022-11-02T21:54:09.087Z,55.10
2022-11-02T21:56:38.185Z,55.10
2022-11-02T21:59:06.338Z,55.00
2022-11-02T22:01:47.095Z,55.00
2022-11-02T22:04:15.809Z,55.00
2022-11-02T22:06:43.571Z,54.90
2022-11-02T22:09:11.560Z,54.90
2022-11-02T22:11:39.280Z,54.80
2022-11-02T22:14:06.957Z,54.80
2022-11-02T22:16:35.063Z,54.70
2022-11-02T22:19:02.866Z,54.70
2022-11-02T22:21:30.629Z,54.60
2022-11-02T22:23:58.319Z,54.70
2022-11-02T22:26:26.061Z,54.60
2022-11-02T22:28:54.017Z,54.50
2022-11-02T22:31:21.698Z,54.70
2022-11-02T22:33:49.809Z,54.80
2022-11-02T22:36:17.654Z,54.90
2022-11-02T22:38:54.151Z,54.80
2022-11-02T22:41:21.929Z,54.90
2022-11-02T22:43:49.626Z,54.70
2022-11-02T22:46:17.301Z,54.70
2022-11-02T22:48:44.972Z,54.70
2022-11-02T22:51:12.661Z,54.80
2022-11-02T22:53:40.491Z,54.70
2022-11-02T22:56:08.880Z,54.70
2022-11-02T22:58:36.578Z,54.60
2022-11-02T23:01:04.568Z,54.70
2022-11-02T23:03:32.765Z,55.00
2022-11-02T23:06:00.508Z,55.10
2022-11-02T23:08:28.345Z,55.20
2022-11-02T23:11:13.399Z,55.20
2022-11-02T23:13:57.424Z,55.20
2022-11-02T23:16:25.224Z,55.20
2022-11-02T23:19:10.277Z,55.00
2022-11-02T23:21:38.010Z,54.90
2022-11-02T23:24:23.734Z,54.90
2022-11-02T23:26:51.482Z,54.90
2022-11-02T23:29:36.880Z,54.90
2022-11-02T23:32:23.628Z,54.80
2022-11-02T23:35:08.580Z,54.70
2022-11-02T23:37:36.213Z,54.80
2022-11-02T23:40:04.090Z,54.80
2022-11-02T23:42:31.707Z,54.70
2022-11-02T23:44:59.468Z,54.70
2022-11-02T23:47:41.079Z,54.70
2022-11-02T23:50:08.693Z,54.70
2022-11-02T23:52:54.086Z,54.70
2022-11-02T23:55:39.268Z,54.70
2022-11-02T23:58:06.923Z,54.60
